sensor_id;sensor_type;location;lat;lon;timestamp;pressure;altitude;pressure_sealevel;temperature;humidity
61740;BME280;47645;45.288;12.038;2023-02-21T02:42:59;1022.1915575050999;;;7.3384765625;99.464545738871
61740;BME280;47645;45.288;12.038;2023-02-21T02:52:54;1022.0486165422492;;;7.35390625;98.27044029758518
61740;BME280;47645;45.288;12.038;2023-02-21T03:03:07;1022.1098555551996;;;7.4201171875;97.6421444316284
61740;BME280;47645;45.288;12.038;2023-02-21T03:12:59;1022.0453717822522;;;7.399609375;98.29806441531171
61740;BME280;47645;45.288;12.038;2023-02-21T03:22:55;1021.9189102983357;;;7.165234375;100
61740;BME280;47645;45.288;12.038;2023-02-21T03:32:54;1021.8434291460587;;;7.2009765625;99.72691247866005
61740;BME280;47645;45.288;12.038;2023-02-21T03:42:56;1021.8157961861123;;;7.27734375;99.38683330404488
61740;BME280;47645;45.288;12.038;2023-02-21T03:52:55;1021.7520520331011;;;7.399609375;99.76562213285149
61740;BME280;47645;45.288;12.038;2023-02-21T04:02:56;1021.7974317886436;;;7.5677734375;100
61740;BME280;47645;45.288;12.038;2023-02-21T04:12:56;1021.7506493860867;;;7.4607421875;100
61740;BME280;47645;45.288;12.038;2023-02-21T04:22:56;1021.7617625479049;;;7.6544921875;98.96393116245476
61740;BME280;47645;45.288;12.038;2023-02-21T04:32:56;1021.7347425751279;;;7.7564453125;100
61740;BME280;47645;45.288;12.038;2023-02-21T04:42:57;1021.7646768988417;;;7.6392578125;100
61740;BME280;47645;45.288;12.038;2023-02-21T04:52:57;1021.6902766038169;;;7.7615234375;97.82314321024332
61740;BME280;47645;45.288;12.038;2023-02-21T05:02:58;1021.5819557484892;;;7.8736328125;95.73350043430786
61740;BME280;47645;45.288;12.038;2023-02-21T05:12:58;1021.5577786177157;;;7.944921875;94.75227678033778
61740;BME280;47645;45.288;12.038;2023-02-21T05:22:59;1021.6006366563502;;;7.934765625;94.85939674230495
61740;BME280;47645;45.288;12.038;2023-02-21T05:33:00;1021.6254705403948;;;7.8431640625;95.42074086830927
61740;BME280;47645;45.288;12.038;2023-02-21T05:42:59;1021.6413120710682;;;7.944921875;94.0934154763545
61740;BME280;47645;45.288;12.038;2023-02-21T05:53:01;1021.547170755983;;;7.837890625;93.87153591166174
61740;BME280;47645;45.288;12.038;2023-02-21T06:03:01;1021.5132516626181;;;7.72578125;93.92220678610407
61740;BME280;47645;45.288;12.038;2023-02-21T06:13:01;1021.6235363996318;;;7.5984375;94.27526834160484
61740;BME280;47645;45.288;12.038;2023-02-21T06:23:01;1021.6532056514163;;;7.3080078125;95.86322945397379
61740;BME280;47645;45.288;12.038;2023-02-21T06:33:02;1021.771642908068;;;7.3435546875;95.45149922464928
61740;BME280;47645;45.288;12.038;2023-02-21T06:43:02;1021.8150464999486;;;7.1294921875;97.30693985735806
61740;BME280;47645;45.288;12.038;2023-02-21T06:53:03;1021.9996321880478;;;6.833984375;100
61740;BME280;47645;45.288;12.038;2023-02-21T07:03:03;1022.0737376703632;;;6.38046875;100
61740;BME280;47645;45.288;12.038;2023-02-21T07:13:03;1022.0054485236606;;;6.5791015625;100
61740;BME280;47645;45.288;12.038;2023-02-21T07:23:04;1022.082249292314;;;6.640234375;100
61740;BME280;47645;45.288;12.038;2023-02-21T07:33:04;1022.1269987329018;;;6.8900390625;100
61740;BME280;47645;45.288;12.038;2023-02-21T07:43:05;1022.227123616413;;;7.144921875;100
61740;BME280;47645;45.288;12.038;2023-02-21T07:53:06;1022.1633851635805;;;7.48125;100
61740;BME280;47645;45.288;12.038;2023-02-21T08:03:06;1022.2309447904521;;;7.70546875;100
61740;BME280;47645;45.288;12.038;2023-02-21T08:13:07;1022.3097056979333;;;7.9501953125;100
61740;BME280;47645;45.288;12.038;2023-02-21T08:23:07;1022.2868393250645;;;8.546484375;100
61740;BME280;47645;45.288;12.038;2023-02-21T08:33:07;1022.3481903187264;;;8.898046875;99.15736100708826
61740;BME280;47645;45.288;12.038;2023-02-21T08:43:08;1022.4349222134799;;;8.58203125;100
61740;BME280;47645;45.288;12.038;2023-02-21T08:53:10;1022.5394008860976;;;8.8470703125;100
61740;BME280;47645;45.288;12.038;2023-02-21T09:03:09;1022.4784012219873;;;8.6380859375;100
61740;BME280;47645;45.288;12.038;2023-02-21T09:13:09;1022.4403014622254;;;9.19375;98.97760654111327
61740;BME280;47645;45.288;12.038;2023-02-21T09:23:10;1022.4255004042238;;;8.9796875;98.58886996855605
61740;BME280;47645;45.288;12.038;2023-02-21T09:33:11;1022.4194457390114;;;9.423046875;95.70773255876173
61740;BME280;47645;45.288;12.038;2023-02-21T09:43:15;1022.3676830718686;;;10.1875;93.30763087606829
61740;BME280;47645;45.288;12.038;2023-02-21T09:53:15;1022.3466149352971;;;10.8857421875;90.49280246627399
61740;BME280;47645;45.288;12.038;2023-02-21T10:03:46;1022.3521261102164;;;11.028515625;88.29393308470554
61740;BME280;47645;45.288;12.038;2023-02-21T10:13:25;1022.2963306521367;;;11.57890625;85.5156825727737
61740;BME280;47645;45.288;12.038;2023-02-21T10:23:15;1022.2717813784512;;;12.353515625;81.91994273339992
61740;BME280;47645;45.288;12.038;2023-02-21T10:33:13;1022.1863432554502;;;12.8734375;78.62763862933267
61740;BME280;47645;45.288;12.038;2023-02-21T10:43:16;1022.1455421110576;;;12.8021484375;79.83015844457974
61740;BME280;47645;45.288;12.038;2023-02-21T10:53:25;1022.1024772497098;;;12.995703125;78.13643504316269
61740;BME280;47645;45.288;12.038;2023-02-21T11:03:21;1022.0267040457131;;;12.4095703125;80.9513935356673
61740;BME280;47645;45.288;12.038;2023-02-21T11:13:18;1021.8430984125596;;;12.440234375;80.9062073906043
61740;BME280;47645;45.288;12.038;2023-02-21T11:23:19;1021.6713322088548;;;13.0263671875;78.39928542084672
61740;BME280;47645;45.288;12.038;2023-02-21T11:33:19;1021.5936555047077;;;13.8927734375;74.13561871615168
61740;BME280;47645;45.288;12.038;2023-02-21T11:43:20;1021.4590886119144;;;13.9794921875;73.93535023442199
61740;BME280;47645;45.288;12.038;2023-02-21T11:53:23;1021.2747988366734;;;14.463671875;71.76940583488108
61740;BME280;47645;45.288;12.038;2023-02-21T12:03:36;1021.1565100227552;;;14.7185546875;70.26536942488153
61740;BME280;47645;45.288;12.038;2023-02-21T12:13:26;1021.0458827730349;;;15.0294921875;69.66389628976403
61740;BME280;47645;45.288;12.038;2023-02-21T12:23:27;1020.9777245650138;;;14.8357421875;70.9487106028766
61740;BME280;47645;45.288;12.038;2023-02-21T12:33:31;1020.8682429926214;;;14.9275390625;69.61776823680205
61740;BME280;47645;45.288;12.038;2023-02-21T12:43:36;1020.7550388002581;;;14.759375;71.44823875294111
61740;BME280;47645;45.288;12.038;2023-02-21T12:53:28;1020.6228899249229;;;15.1466796875;71.59011519657918
61740;BME280;47645;45.288;12.038;2023-02-21T13:03:33;1020.4849124693279;;;15.116015625;70.29485458267162
61740;BME280;47645;45.288;12.038;2023-02-21T13:13:27;1020.3587259875994;;;15.39140625;68.43477144136737
61740;BME280;47645;45.288;12.038;2023-02-21T13:24:44;1020.2382591568224;;;15.0701171875;68.958862050199
61740;BME280;47645;45.288;12.038;2023-02-21T13:33:29;1020.131385859112;;;14.8509765625;72.281452405364
61740;BME280;47645;45.288;12.038;2023-02-21T13:43:28;1020.1664255283828;;;15.075390625;71.01226649655965
61740;BME280;47645;45.288;12.038;2023-02-21T13:53:29;1020.0947033855437;;;15.4421875;68.42129396961182
61740;BME280;47645;45.288;12.038;2023-02-21T14:03:31;1019.9840630516853;;;15.4525390625;68.66900879776875
61740;BME280;47645;45.288;12.038;2023-02-21T14:13:33;1019.8849291390758;;;14.4025390625;70.96868869420267
61740;BME280;47645;45.288;12.038;2023-02-21T14:23:40;1019.8015693539656;;;14.0763671875;72.76581846755339
61740;BME280;47645;45.288;12.038;2023-02-21T14:33:30;1019.765022849165;;;13.6634765625;77.40086835576422
61740;BME280;47645;45.288;12.038;2023-02-21T14:43:53;1019.6715266289473;;;13.38828125;79.30964067933783
61740;BME280;47645;45.288;12.038;2023-02-21T14:53:44;1019.662585448943;;;13.4595703125;79.11562923089075
61740;BME280;47645;45.288;12.038;2023-02-21T15:03:37;1019.7129424854774;;;13.199609375;79.67271794510918
61740;BME280;47645;45.288;12.038;2023-02-21T15:13:34;1019.6628115400562;;;12.98046875;84.06280317603733
61740;BME280;47645;45.288;12.038;2023-02-21T15:23:34;1019.6026420368839;;;12.55234375;86.3556005791333
61740;BME280;47645;45.288;12.038;2023-02-21T15:33:35;1019.5940341526361;;;12.5166015625;87.77483193190578
61740;BME280;47645;45.288;12.038;2023-02-21T15:43:41;1019.6200263734631;;;12.0783203125;91.13977617796
61740;BME280;47645;45.288;12.038;2023-02-21T15:53:34;1019.5974905571417;;;11.81328125;92.73227458489043
61740;BME280;47645;45.288;12.038;2023-02-21T16:03:37;1019.6234975120924;;;11.5431640625;94.1829246427168
61740;BME280;47645;45.288;12.038;2023-02-21T16:13:37;1019.5608048387944;;;11.67578125;93.18677965952956
61740;BME280;47645;45.288;12.038;2023-02-21T16:23:38;1019.590678086772;;;11.3138671875;92.537284277366
61740;BME280;47645;45.288;12.038;2023-02-21T16:33:37;1019.589380349476;;;11.1966796875;94.1392888762428
61740;BME280;47645;45.288;12.038;2023-02-21T16:43:38;1019.6256675891204;;;11.3392578125;93.82967917240896
61740;BME280;47645;45.288;12.038;2023-02-21T16:53:38;1019.6750956171162;;;11.2017578125;94.31567738107216
61740;BME280;47645;45.288;12.038;2023-02-21T17:03:40;1019.7470828378198;;;11.135546875;94.59609037614588
61740;BME280;47645;45.288;12.038;2023-02-21T17:13:41;1019.7824342197262;;;11.2068359375;94.64272137332111
61740;BME280;47645;45.288;12.038;2023-02-21T17:23:40;1019.8485125597633;;;11.476953125;92.8129372392
61740;BME280;47645;45.288;12.038;2023-02-21T17:33:41;1019.909264493007;;;11.55859375;92.21369243300039
61740;BME280;47645;45.288;12.038;2023-02-21T17:43:41;1020.0013766693289;;;11.594140625;91.25260443927978
61740;BME280;47645;45.288;12.038;2023-02-21T17:53:42;1019.971972941779;;;11.5076171875;92.13476445423682
61740;BME280;47645;45.288;12.038;2023-02-21T18:03:43;1020.0114231473873;;;11.3953125;91.80095412085339
61740;BME280;47645;45.288;12.038;2023-02-21T18:13:44;1020.1022320432838;;;11.36484375;91.81259589985771
61740;BME280;47645;45.288;12.038;2023-02-21T18:23:45;1020.0540960752047;;;11.252734375;92.39491482607171
61740;BME280;47645;45.288;12.038;2023-02-21T18:33:44;1020.0408718729175;;;11.2119140625;92.37641978433612
61740;BME280;47645;45.288;12.038;2023-02-21T18:43:46;1020.0145077484107;;;11.0234375;93.59719859601056
61740;BME280;47645;45.288;12.038;2023-02-21T18:53:46;1020.1572793592652;;;10.824609375;94.58363328689163
61740;BME280;47645;45.288;12.038;2023-02-21T19:03:48;1020.1077062906753;;;10.81953125;95.77376577140392
61740;BME280;47645;45.288;12.038;2023-02-21T19:13:49;1020.1431427288861;;;10.8958984375;93.50299156842289
61740;BME280;47645;45.288;12.038;2023-02-21T19:23:47;1020.0565000701275;;;10.83984375;95.18117443029846
61740;BME280;47645;45.288;12.038;2023-02-21T19:33:48;1020.1644135792296;;;10.630859375;95.28778553190205
61740;BME280;47645;45.288;12.038;2023-02-21T19:43:48;1020.1124877358691;;;10.737890625;95.55525754792771
61740;BME280;47645;45.288;12.038;2023-02-21T19:53:49;1020.1754202120013;;;10.6919921875;94.21903051917481
61740;BME280;47645;45.288;12.038;2023-02-21T20:03:49;1020.2522173059115;;;10.6513671875;94.27944230651804
61740;BME280;47645;45.288;12.038;2023-02-21T20:13:50;1020.2163682987396;;;10.416796875;97.20182632502402
61740;BME280;47645;45.288;12.038;2023-02-21T20:23:51;1020.1884646445408;;;10.4474609375;100
61740;BME280;47645;45.288;12.038;2023-02-21T20:33:51;1020.2559630598018;;;10.29453125;98.06840532087453
61740;BME280;47645;45.288;12.038;2023-02-21T20:43:51;1020.2966625610574;;;10.5392578125;100
61740;BME280;47645;45.288;12.038;2023-02-21T20:53:51;1020.3470904610143;;;10.29453125;100
61740;BME280;47645;45.288;12.038;2023-02-21T21:03:52;1020.304873021702;;;10.29453125;99.47431829695473
61740;BME280;47645;45.288;12.038;2023-02-21T21:13:52;1020.2946873201431;;;10.29453125;100
61740;BME280;47645;45.288;12.038;2023-02-21T21:23:55;1020.2639094446262;;;10.202734375;100
61740;BME280;47645;45.288;12.038;2023-02-21T21:33:56;1020.3373637715337;;;10.2435546875;100
61740;BME280;47645;45.288;12.038;2023-02-21T21:43:54;1020.2753188720411;;;10.0498046875;100
61740;BME280;47645;45.288;12.038;2023-02-21T21:53:57;1020.2017340047516;;;10.3046875;100
61740;BME280;47645;45.288;12.038;2023-02-21T22:03:55;1020.2930251730457;;;10.1416015625;100
61740;BME280;47645;45.288;12.038;2023-02-21T22:13:55;1020.2237545900015;;;10.3353515625;100
61740;BME280;47645;45.288;12.038;2023-02-21T22:23:56;1020.1845751675387;;;10.105859375;100
61740;BME280;47645;45.288;12.038;2023-02-21T22:33:59;1020.0930563862488;;;10.0703125;100
61740;BME280;47645;45.288;12.038;2023-02-21T22:43:58;1020.0603048983909;;;9.948046875;100
61740;BME280;47645;45.288;12.038;2023-02-21T22:53:58;1019.9734455802724;;;10.1263671875;100
61740;BME280;47645;45.288;12.038;2023-02-21T23:04:10;1019.9844637891288;;;10.202734375;100
61740;BME280;47645;45.288;12.038;2023-02-21T23:13:58;1019.9021933232827;;;10.0498046875;100
61740;BME280;47645;45.288;12.038;2023-02-21T23:23:59;1019.8185239989314;;;10.0294921875;100
61740;BME280;47645;45.288;12.038;2023-02-21T23:33:59;1019.8473803833737;;;9.9376953125;100
61740;BME280;47645;45.288;12.038;2023-02-21T23:43:59;1019.7842869876;;;9.8306640625;100
61740;BME280;47645;45.288;12.038;2023-02-21T23:54:00;1019.6819668004078;;;9.8103515625;100
